createdAt,value
2018-03-20T00:01:27.240Z,39.06
2018-03-20T00:03:53.391Z,39.14
2018-03-20T00:06:19.604Z,38.99
2018-03-20T00:08:46.689Z,38.84
2018-03-20T00:11:12.844Z,38.82
2018-03-20T00:13:39.042Z,38.79
2018-03-20T00:16:05.238Z,38.88
2018-03-20T00:18:31.436Z,38.89
2018-03-20T00:20:57.606Z,38.88
2018-03-20T00:23:23.773Z,38.83
2018-03-20T00:25:49.984Z,38.89
2018-03-20T00:28:16.434Z,38.93
2018-03-20T00:30:42.608Z,39.07
2018-03-20T00:33:08.847Z,39.09
2018-03-20T00:35:35.004Z,39.16
2018-03-20T00:38:01.195Z,39.25
2018-03-20T00:40:27.371Z,39.37
2018-03-20T00:42:53.900Z,39.49
2018-03-20T00:45:20.342Z,39.55
2018-03-20T00:47:46.537Z,39.57
2018-03-20T00:50:12.738Z,39.54
2018-03-20T00:52:38.903Z,39.57
2018-03-20T00:55:05.080Z,39.42
2018-03-20T00:57:31.580Z,39.43
2018-03-20T00:59:57.793Z,39.38
2018-03-20T01:02:24.000Z,39.34
2018-03-20T01:04:50.166Z,39.55
2018-03-20T01:07:16.392Z,39.36
2018-03-20T01:09:42.926Z,39.42
2018-03-20T01:12:09.075Z,39.57
2018-03-20T01:14:35.282Z,39.65
2018-03-20T01:17:01.423Z,39.69
2018-03-20T01:19:27.607Z,39.68
2018-03-20T01:21:53.811Z,39.84
2018-03-20T01:24:19.951Z,40.49
2018-03-20T01:26:46.119Z,40.50
2018-03-20T01:29:12.309Z,40.62
2018-03-20T01:31:38.456Z,40.77
2018-03-20T01:34:04.627Z,40.92
2018-03-20T01:36:30.795Z,40.91
2018-03-20T01:38:57.018Z,41.01
2018-03-20T01:41:23.195Z,41.12
2018-03-20T01:43:49.362Z,41.09
2018-03-20T01:46:15.550Z,41.25
2018-03-20T01:48:41.715Z,41.32
2018-03-20T01:51:07.934Z,41.39
2018-03-20T01:53:34.106Z,41.42
2018-03-20T01:56:00.322Z,41.51
2018-03-20T01:58:26.463Z,41.54
2018-03-20T02:00:52.614Z,41.53
2018-03-20T02:03:18.796Z,41.41
2018-03-20T02:05:44.981Z,41.37
2018-03-20T02:08:11.173Z,41.56
2018-03-20T02:10:37.607Z,41.43
2018-03-20T02:13:03.811Z,41.12
2018-03-20T02:15:30.006Z,41.04
2018-03-20T02:17:56.187Z,41.46
2018-03-20T02:20:22.383Z,41.79
2018-03-20T02:22:48.630Z,41.35
2018-03-20T02:25:14.777Z,40.98
2018-03-20T02:27:41.035Z,41.00
2018-03-20T02:30:07.207Z,41.00
2018-03-20T02:32:33.392Z,40.89
2018-03-20T02:34:59.579Z,40.79
2018-03-20T02:37:25.802Z,40.74
2018-03-20T02:39:51.950Z,40.88
2018-03-20T02:42:18.113Z,40.90
2018-03-20T02:44:44.339Z,40.75
2018-03-20T02:47:10.514Z,40.80
2018-03-20T02:49:36.687Z,40.82
2018-03-20T02:52:02.884Z,40.89
2018-03-20T02:54:29.101Z,40.91
2018-03-20T02:56:55.267Z,40.83
2018-03-20T02:59:21.760Z,40.77
2018-03-20T03:01:47.958Z,40.82
2018-03-20T03:04:14.117Z,40.74
2018-03-20T03:06:40.291Z,40.76
2018-03-20T03:09:06.496Z,40.83
2018-03-20T03:11:32.898Z,40.88
2018-03-20T03:13:59.086Z,40.78
2018-03-20T03:16:25.282Z,40.78
2018-03-20T03:18:51.454Z,40.70
2018-03-20T03:21:17.920Z,40.71
2018-03-20T03:23:44.086Z,40.67
2018-03-20T03:26:10.256Z,40.67
2018-03-20T03:28:36.477Z,40.65
2018-03-20T03:31:02.928Z,40.63
2018-03-20T03:33:29.362Z,40.69
2018-03-20T03:35:55.653Z,40.65
2018-03-20T03:38:21.799Z,41.59
2018-03-20T03:40:47.962Z,41.83
2018-03-20T03:43:14.172Z,41.93
2018-03-20T03:45:40.629Z,41.88
2018-03-20T03:48:07.142Z,41.80
2018-03-20T03:50:33.394Z,42.16
2018-03-20T03:52:59.579Z,42.02
2018-03-20T03:55:25.731Z,41.83
2018-03-20T03:57:51.926Z,41.96
2018-03-20T04:00:18.109Z,41.96
2018-03-20T04:02:44.314Z,42.06
2018-03-20T04:05:10.468Z,42.24
2018-03-20T04:07:36.655Z,42.17
2018-03-20T04:10:02.897Z,42.27
2018-03-20T04:12:29.320Z,42.21
2018-03-20T04:14:55.492Z,42.25
2018-03-20T04:17:21.634Z,42.12
2018-03-20T04:19:47.817Z,42.12
2018-03-20T04:22:14.334Z,42.14
2018-03-20T04:24:40.485Z,42.12
2018-03-20T04:27:06.643Z,42.10
2018-03-20T04:29:33.119Z,41.98
2018-03-20T04:31:59.658Z,42.03
2018-03-20T04:34:25.847Z,42.06
2018-03-20T04:36:52.018Z,41.94
2018-03-20T04:39:18.179Z,42.01
2018-03-20T04:41:44.673Z,41.89
2018-03-20T04:44:10.836Z,41.99
2018-03-20T04:46:37.266Z,41.97
2018-03-20T04:49:03.761Z,41.94
2018-03-20T04:51:29.941Z,41.92
2018-03-20T04:53:56.174Z,41.92
2018-03-20T04:56:22.349Z,42.06
2018-03-20T04:58:48.779Z,42.35
2018-03-20T05:01:15.030Z,42.38
2018-03-20T05:03:41.199Z,42.29
2018-03-20T05:06:07.366Z,42.29
2018-03-20T05:08:33.570Z,42.63
2018-03-20T05:10:59.714Z,42.58
2018-03-20T05:13:25.867Z,42.47
2018-03-20T05:15:52.105Z,42.44
2018-03-20T05:18:18.553Z,42.58
2018-03-20T05:20:50.770Z,42.50
2018-03-20T05:26:13.882Z,41.96
2018-03-20T05:28:40.083Z,41.53
2018-03-20T05:31:06.306Z,41.41
2018-03-20T05:33:32.513Z,41.32
2018-03-20T05:35:58.758Z,41.20
2018-03-20T05:38:25.022Z,41.14
2018-03-20T05:40:51.213Z,41.06
2018-03-20T05:43:17.427Z,41.02
2018-03-20T05:45:43.666Z,40.92
2018-03-20T05:51:15.846Z,40.81
2018-03-20T05:53:42.082Z,40.49
2018-03-20T05:56:08.235Z,40.13
2018-03-20T05:58:34.469Z,39.83
2018-03-20T06:01:00.666Z,39.55
2018-03-20T06:03:27.054Z,39.76
2018-03-20T06:05:53.233Z,40.22
2018-03-20T06:08:19.767Z,39.72
2018-03-20T06:10:45.960Z,39.75
2018-03-20T06:13:12.127Z,40.27
2018-03-20T06:15:38.353Z,40.46
2018-03-20T06:18:04.488Z,40.28
2018-03-20T06:20:30.628Z,40.61
2018-03-20T06:22:56.823Z,40.62
2018-03-20T06:25:23.024Z,40.55
2018-03-20T06:27:49.259Z,40.66
2018-03-20T06:30:15.407Z,40.63
2018-03-20T06:32:41.805Z,40.43
2018-03-20T06:35:07.981Z,40.08
2018-03-20T06:37:34.142Z,40.35
2018-03-20T06:40:00.357Z,40.25
2018-03-20T06:42:26.858Z,40.46
2018-03-20T06:44:53.394Z,40.41
2018-03-20T06:47:19.562Z,40.27
2018-03-20T06:49:45.730Z,40.54
2018-03-20T06:52:11.887Z,40.64
2018-03-20T06:54:38.109Z,40.67
2018-03-20T06:57:04.324Z,40.62
2018-03-20T06:59:30.531Z,40.52
2018-03-20T07:01:57.113Z,40.51
2018-03-20T07:04:23.322Z,40.25
2018-03-20T07:06:49.469Z,40.06
2018-03-20T07:09:15.640Z,39.97
2018-03-20T07:11:41.799Z,39.93
2018-03-20T07:14:08.012Z,39.90
2018-03-20T07:16:34.159Z,39.78
2018-03-20T07:19:00.308Z,39.75
2018-03-20T07:21:26.521Z,39.66
2018-03-20T07:23:52.677Z,39.61
2018-03-20T07:26:18.876Z,39.55
2018-03-20T07:28:45.054Z,39.40
2018-03-20T07:31:11.282Z,39.31
2018-03-20T07:33:37.465Z,39.23
2018-03-20T07:36:03.635Z,39.14
2018-03-20T07:38:29.834Z,39.05
2018-03-20T07:40:56.022Z,39.04
2018-03-20T07:43:22.562Z,38.90
2018-03-20T07:45:48.951Z,38.90
2018-03-20T07:48:15.387Z,38.79
2018-03-20T07:50:41.535Z,38.73
2018-03-20T07:53:07.798Z,38.67
2018-03-20T07:55:33.955Z,38.70
2018-03-20T07:58:00.134Z,38.64
2018-03-20T08:00:26.311Z,38.64
2018-03-20T08:02:52.501Z,38.62
2018-03-20T08:05:19.028Z,38.65
2018-03-20T08:07:45.241Z,38.63
2018-03-20T08:10:11.658Z,38.63
2018-03-20T08:12:37.879Z,38.64
2018-03-20T08:15:04.288Z,38.63
2018-03-20T08:17:30.712Z,38.65
2018-03-20T08:19:56.923Z,38.64
2018-03-20T08:22:23.097Z,38.63
2018-03-20T08:24:49.341Z,38.60
2018-03-20T08:27:15.499Z,38.60
2018-03-20T08:29:41.663Z,38.54
2018-03-20T08:32:07.859Z,38.50
2018-03-20T08:34:34.039Z,38.49
2018-03-20T08:37:00.272Z,38.40
2018-03-20T08:39:26.445Z,38.38
2018-03-20T08:41:52.602Z,38.36
2018-03-20T08:44:18.876Z,38.34
2018-03-20T08:46:45.013Z,38.31
2018-03-20T08:49:11.223Z,38.29
2018-03-20T08:51:37.403Z,38.24
2018-03-20T08:54:03.640Z,38.21
2018-03-20T08:56:29.807Z,38.16
2018-03-20T08:59:01.980Z,38.16
2018-03-20T09:01:28.519Z,38.08
2018-03-20T09:03:54.732Z,38.09
2018-03-20T09:06:20.934Z,38.12
2018-03-20T09:08:47.116Z,38.08
2018-03-20T09:11:13.327Z,38.10
2018-03-20T09:13:39.535Z,38.07
2018-03-20T09:16:05.699Z,38.05
2018-03-20T09:18:31.872Z,38.01
2018-03-20T09:20:58.064Z,37.97
2018-03-20T09:23:24.275Z,37.98
2018-03-20T09:25:50.425Z,37.99
2018-03-20T09:28:16.615Z,38.00
2018-03-20T09:30:42.802Z,37.95
2018-03-20T09:33:08.985Z,37.95
2018-03-20T09:35:35.398Z,37.96
2018-03-20T09:38:01.832Z,37.96
2018-03-20T09:40:28.040Z,37.93
2018-03-20T09:42:54.208Z,37.95
2018-03-20T09:45:20.386Z,37.90
2018-03-20T09:47:46.587Z,37.86
2018-03-20T09:50:12.746Z,37.82
2018-03-20T09:52:38.932Z,37.77
2018-03-20T09:55:05.168Z,37.71
2018-03-20T09:57:31.359Z,37.71
2018-03-20T09:59:57.533Z,37.71
2018-03-20T10:02:23.711Z,37.69
2018-03-20T10:04:50.139Z,37.66
2018-03-20T10:07:16.330Z,37.62
2018-03-20T10:09:42.535Z,37.58
2018-03-20T10:12:08.688Z,37.55
2018-03-20T10:14:34.847Z,37.53
2018-03-20T10:17:01.044Z,37.54
2018-03-20T10:19:27.218Z,37.54
2018-03-20T10:21:53.396Z,37.55
2018-03-20T10:24:19.573Z,37.52
2018-03-20T10:26:45.834Z,37.53
2018-03-20T10:29:12.024Z,37.57
2018-03-20T10:31:38.191Z,37.53
2018-03-20T10:34:04.674Z,37.55
2018-03-20T10:36:31.106Z,37.52
2018-03-20T10:38:57.274Z,37.47
2018-03-20T10:41:23.580Z,37.48
2018-03-20T10:43:49.774Z,37.48
2018-03-20T10:46:15.958Z,37.47
2018-03-20T10:48:42.150Z,37.44
2018-03-20T10:51:08.352Z,37.42
2018-03-20T10:53:34.511Z,37.34
2018-03-20T10:56:00.693Z,37.22
2018-03-20T10:58:26.880Z,37.22
2018-03-20T11:00:59.433Z,37.25
2018-03-20T11:03:25.621Z,37.30
2018-03-20T11:05:51.843Z,37.27
2018-03-20T11:08:18.023Z,37.24
2018-03-20T11:10:44.215Z,37.20
2018-03-20T11:13:10.495Z,37.29
2018-03-20T11:15:36.678Z,37.66
2018-03-20T11:18:02.944Z,37.76
2018-03-20T11:20:29.132Z,37.77
2018-03-20T11:22:55.296Z,37.87
2018-03-20T11:25:21.501Z,37.93
2018-03-20T11:27:47.767Z,37.90
2018-03-20T11:30:13.971Z,37.88
2018-03-20T11:32:40.394Z,37.83
2018-03-20T11:35:06.641Z,37.57
2018-03-20T11:37:32.896Z,37.25
2018-03-20T11:39:59.067Z,37.22
2018-03-20T11:42:25.329Z,37.28
2018-03-20T11:44:51.548Z,37.35
2018-03-20T11:47:18.074Z,37.37
2018-03-20T11:49:44.311Z,37.54
2018-03-20T11:52:10.503Z,37.94
2018-03-20T11:54:36.754Z,38.11
2018-03-20T11:57:02.982Z,37.72
2018-03-20T11:59:29.206Z,37.67
2018-03-20T12:01:55.411Z,37.50
2018-03-20T12:04:21.594Z,37.45
2018-03-20T12:06:48.101Z,37.36
2018-03-20T12:12:17.849Z,37.21
2018-03-20T12:14:43.999Z,37.18
2018-03-20T12:17:10.260Z,37.16
2018-03-20T12:19:36.516Z,37.13
2018-03-20T12:22:02.691Z,37.10
2018-03-20T12:24:28.881Z,37.04
2018-03-20T12:26:55.057Z,37.01
2018-03-20T12:29:21.232Z,37.00
2018-03-20T12:31:47.653Z,36.96
2018-03-20T12:34:13.849Z,36.94
2018-03-20T12:36:39.991Z,36.92
2018-03-20T12:39:06.156Z,36.94
2018-03-20T12:41:32.668Z,36.92
2018-03-20T12:43:58.832Z,36.91
2018-03-20T12:46:25.338Z,36.89
2018-03-20T12:48:51.495Z,36.87
2018-03-20T12:51:17.667Z,36.86
2018-03-20T12:53:43.862Z,36.84
2018-03-20T12:56:10.071Z,36.82
2018-03-20T12:58:36.300Z,36.79
2018-03-20T13:01:02.906Z,36.79
2018-03-20T13:03:29.443Z,36.75
2018-03-20T13:05:55.621Z,36.72
2018-03-20T13:08:21.840Z,36.69
2018-03-20T13:10:48.040Z,36.67
2018-03-20T13:13:14.565Z,36.67
2018-03-20T13:15:41.414Z,36.95
2018-03-20T13:18:07.632Z,37.15
2018-03-20T13:20:33.818Z,36.96
2018-03-20T13:22:59.994Z,36.78
2018-03-20T13:25:26.207Z,36.73
2018-03-20T13:27:52.390Z,36.71
2018-03-20T13:30:18.583Z,36.68
2018-03-20T13:32:44.751Z,36.67
2018-03-20T13:35:10.955Z,36.67
2018-03-20T13:37:37.152Z,36.64
2018-03-20T13:40:03.405Z,36.65
2018-03-20T13:42:29.598Z,36.64
2018-03-20T13:44:55.788Z,36.79
2018-03-20T13:47:21.990Z,36.64
2018-03-20T13:49:48.169Z,36.61
2018-03-20T13:52:14.443Z,36.56
2018-03-20T13:54:40.619Z,36.55
2018-03-20T13:57:06.927Z,36.53
2018-03-20T13:59:33.074Z,36.52
2018-03-20T14:01:59.238Z,36.47
2018-03-20T14:04:25.470Z,36.47
2018-03-20T14:06:51.690Z,36.42
2018-03-20T14:09:17.877Z,36.37
2018-03-20T14:11:44.098Z,36.34
2018-03-20T14:14:10.678Z,36.25
2018-03-20T14:16:36.866Z,36.11
2018-03-20T14:19:03.050Z,35.84
2018-03-20T14:21:29.562Z,35.24
2018-03-20T14:23:55.995Z,34.19
2018-03-20T14:26:22.174Z,32.63
2018-03-20T14:28:48.344Z,31.33
2018-03-20T14:31:14.574Z,30.49
2018-03-20T14:33:40.751Z,29.89
2018-03-20T14:36:06.951Z,29.46
2018-03-20T14:38:33.129Z,29.11
2018-03-20T14:40:59.301Z,28.78
2018-03-20T14:43:25.638Z,28.47
2018-03-20T14:45:51.825Z,28.23
2018-03-20T14:48:18.292Z,28.04
2018-03-20T14:50:46.341Z,27.81
2018-03-20T14:53:12.603Z,27.58
2018-03-20T14:55:38.803Z,27.42
2018-03-20T14:58:05.004Z,27.25
2018-03-20T15:00:31.230Z,27.06
2018-03-20T15:03:12.282Z,26.92
2018-03-20T15:05:38.480Z,26.73
2018-03-20T15:08:04.635Z,26.63
2018-03-20T15:10:31.123Z,26.46
2018-03-20T15:12:57.301Z,26.32
2018-03-20T15:15:23.493Z,26.20
2018-03-20T15:17:49.690Z,26.12
2018-03-20T15:20:15.848Z,26.06
2018-03-20T15:22:42.360Z,26.07
2018-03-20T15:25:08.529Z,26.09
2018-03-20T15:27:34.757Z,26.13
2018-03-20T15:30:00.905Z,26.14
2018-03-20T15:32:27.234Z,26.09
2018-03-20T15:34:53.421Z,26.07
2018-03-20T15:37:19.608Z,26.12
2018-03-20T15:39:45.840Z,26.14
2018-03-20T15:42:11.992Z,26.22
2018-03-20T15:44:38.172Z,26.29
2018-03-20T15:47:04.369Z,26.39
2018-03-20T15:49:30.532Z,26.51
2018-03-20T15:51:56.750Z,26.63
2018-03-20T15:54:22.931Z,26.89
2018-03-20T15:56:49.071Z,27.26
2018-03-20T15:59:15.309Z,27.73
2018-03-20T16:01:41.478Z,28.37
2018-03-20T16:04:07.674Z,28.99
2018-03-20T16:06:34.163Z,29.61
2018-03-20T16:09:00.368Z,30.23
2018-03-20T16:11:26.828Z,30.75
2018-03-20T16:13:53.480Z,31.17
2018-03-20T16:16:19.663Z,31.44
2018-03-20T16:18:46.046Z,31.72
2018-03-20T16:21:12.232Z,31.88
2018-03-20T16:23:38.687Z,32.02
2018-03-20T16:26:04.956Z,32.20
2018-03-20T16:28:31.162Z,32.35
2018-03-20T16:30:57.680Z,32.46
2018-03-20T16:33:24.203Z,32.56
2018-03-20T16:35:50.378Z,32.63
2018-03-20T16:38:16.639Z,32.80
2018-03-20T16:40:42.811Z,32.85
2018-03-20T16:43:08.951Z,33.04
2018-03-20T16:45:35.148Z,33.21
2018-03-20T16:48:01.287Z,33.31
2018-03-20T16:50:27.423Z,33.41
2018-03-20T16:52:53.691Z,33.53
2018-03-20T16:55:19.855Z,33.70
2018-03-20T16:57:46.036Z,33.91
2018-03-20T17:00:12.253Z,34.10
2018-03-20T17:02:38.634Z,34.26
2018-03-20T17:05:04.840Z,34.40
2018-03-20T17:07:31.045Z,34.50
2018-03-20T17:09:57.223Z,34.70
2018-03-20T17:12:23.458Z,34.92
2018-03-20T17:14:49.644Z,35.24
2018-03-20T17:17:16.210Z,35.42
2018-03-20T17:19:42.422Z,35.71
2018-03-20T17:22:08.607Z,35.89
2018-03-20T17:24:34.767Z,36.08
2018-03-20T17:27:01.016Z,36.26
2018-03-20T17:29:27.340Z,36.57
2018-03-20T17:31:53.510Z,36.79
2018-03-20T17:34:19.827Z,37.01
2018-03-20T17:36:46.386Z,37.15
2018-03-20T17:39:12.774Z,37.39
2018-03-20T17:41:38.920Z,37.61
2018-03-20T17:44:05.188Z,37.81
2018-03-20T17:46:31.448Z,38.10
2018-03-20T17:48:57.621Z,38.22
2018-03-20T17:51:23.779Z,38.38
2018-03-20T17:53:49.986Z,38.51
2018-03-20T17:56:16.176Z,38.60
2018-03-20T17:58:42.406Z,38.67
2018-03-20T18:01:08.700Z,38.81
2018-03-20T18:03:34.858Z,38.91
2018-03-20T18:06:01.085Z,38.94
2018-03-20T18:08:27.268Z,39.17
2018-03-20T18:10:53.742Z,39.20
2018-03-20T18:13:19.960Z,39.28
2018-03-20T18:15:46.120Z,39.35
2018-03-20T18:18:12.298Z,39.38
2018-03-20T18:20:38.507Z,39.45
2018-03-20T18:23:04.654Z,39.42
2018-03-20T18:25:30.840Z,39.51
2018-03-20T18:27:57.013Z,39.64
2018-03-20T18:30:23.220Z,39.75
2018-03-20T18:32:49.407Z,39.86
2018-03-20T18:35:15.627Z,39.90
2018-03-20T18:37:41.787Z,40.02
2018-03-20T18:40:07.948Z,39.83
2018-03-20T18:42:34.130Z,39.86
2018-03-20T18:45:00.291Z,39.85
2018-03-20T18:47:26.483Z,39.88
2018-03-20T18:49:52.693Z,39.85
2018-03-20T18:52:18.907Z,39.81
2018-03-20T18:54:45.083Z,39.81
2018-03-20T18:57:11.304Z,39.80
2018-03-20T18:59:37.511Z,39.76
2018-03-20T19:02:03.722Z,39.78
2018-03-20T19:04:30.250Z,39.84
2018-03-20T19:06:56.408Z,39.92
2018-03-20T19:09:22.578Z,39.96
2018-03-20T19:11:48.863Z,39.96
2018-03-20T19:14:15.047Z,39.95
2018-03-20T19:16:41.262Z,39.97
2018-03-20T19:19:07.429Z,39.98
2018-03-20T19:21:33.635Z,40.03
2018-03-20T19:23:59.876Z,40.03
2018-03-20T19:26:26.029Z,40.03
2018-03-20T19:28:52.248Z,40.06
2018-03-20T19:31:18.488Z,40.09
2018-03-20T19:33:44.658Z,40.14
2018-03-20T19:36:11.107Z,40.12
2018-03-20T19:38:37.323Z,40.12
2018-03-20T19:41:03.559Z,40.12
2018-03-20T19:43:29.716Z,40.11
2018-03-20T19:45:55.905Z,40.09
2018-03-20T19:48:22.142Z,40.09
2018-03-20T19:50:48.586Z,40.08
2018-03-20T19:53:14.803Z,40.11
2018-03-20T19:55:40.979Z,40.10
2018-03-20T19:58:07.173Z,40.14
2018-03-20T20:00:33.407Z,40.13
2018-03-20T20:02:59.610Z,40.50
2018-03-20T20:05:25.823Z,40.80
2018-03-20T20:07:52.062Z,40.89
2018-03-20T20:10:18.232Z,40.99
2018-03-20T20:12:44.415Z,41.00
2018-03-20T20:15:10.970Z,41.03
2018-03-20T20:17:37.151Z,41.04
2018-03-20T20:20:03.311Z,41.01
2018-03-20T20:22:29.540Z,41.12
2018-03-20T20:24:55.693Z,41.15
2018-03-20T20:27:21.855Z,41.24
2018-03-20T20:29:48.339Z,41.35
2018-03-20T20:32:14.520Z,41.47
2018-03-20T20:34:40.727Z,41.32
2018-03-20T20:37:06.892Z,41.46
2018-03-20T20:39:33.127Z,41.42
2018-03-20T20:41:59.279Z,41.53
2018-03-20T20:44:25.450Z,41.47
2018-03-20T20:46:51.634Z,41.44
2018-03-20T20:49:17.835Z,41.43
2018-03-20T20:51:43.998Z,41.47
2018-03-20T20:54:10.212Z,41.50
2018-03-20T20:56:36.399Z,41.63
2018-03-20T20:59:02.576Z,41.75
2018-03-20T21:01:28.784Z,41.83
2018-03-20T21:03:54.963Z,41.81
2018-03-20T21:06:21.161Z,41.79
2018-03-20T21:08:47.886Z,41.79
2018-03-20T21:11:14.166Z,41.82
2018-03-20T21:13:40.385Z,41.94
2018-03-20T21:16:06.875Z,41.96
2018-03-20T21:18:33.311Z,42.04
2018-03-20T21:20:59.517Z,42.04
2018-03-20T21:23:25.691Z,41.93
2018-03-20T21:25:51.871Z,41.89
2018-03-20T21:28:18.072Z,41.85
2018-03-20T21:30:44.283Z,41.86
2018-03-20T21:33:10.505Z,41.92
2018-03-20T21:35:36.687Z,41.93
2018-03-20T21:38:02.872Z,41.92
2018-03-20T21:40:29.013Z,41.89
2018-03-20T21:42:55.323Z,42.08
2018-03-20T21:45:21.494Z,41.97
2018-03-20T21:47:47.649Z,41.99
2018-03-20T21:50:13.833Z,41.94
2018-03-20T21:52:40.011Z,41.94
2018-03-20T21:55:06.214Z,41.92
2018-03-20T21:57:32.541Z,41.88
2018-03-20T21:59:58.787Z,41.94
2018-03-20T22:02:25.516Z,41.90
2018-03-20T22:04:51.671Z,41.88
2018-03-20T22:07:17.858Z,41.88
2018-03-20T22:09:44.030Z,41.90
2018-03-20T22:12:10.224Z,41.88
2018-03-20T22:14:36.582Z,41.92
2018-03-20T22:17:02.906Z,41.99
2018-03-20T22:19:29.205Z,41.99
2018-03-20T22:21:55.411Z,41.95
2018-03-20T22:24:21.628Z,42.01
2018-03-20T22:26:47.797Z,42.00
2018-03-20T22:29:13.986Z,42.04
2018-03-20T22:31:40.562Z,42.05
2018-03-20T22:34:07.001Z,42.07
2018-03-20T22:36:33.196Z,42.02
2018-03-20T22:38:59.636Z,41.96
2018-03-20T22:41:26.192Z,41.93
2018-03-20T22:43:52.478Z,41.95
2018-03-20T22:46:19.162Z,41.95
2018-03-20T22:48:46.133Z,42.00
2018-03-20T22:51:13.829Z,42.19
2018-03-20T22:53:40.300Z,42.25
2018-03-20T22:56:06.678Z,42.26
2018-03-20T22:58:32.875Z,42.28
2018-03-20T23:00:59.097Z,42.21
2018-03-20T23:03:25.554Z,42.08
2018-03-20T23:05:51.915Z,42.00
2018-03-20T23:08:18.077Z,41.96
2018-03-20T23:10:44.411Z,42.19
2018-03-20T23:13:11.382Z,42.30
2018-03-20T23:15:37.863Z,42.41
2018-03-20T23:20:36.854Z,42.38
2018-03-20T23:23:03.036Z,42.42
2018-03-20T23:25:29.275Z,42.56
2018-03-20T23:27:55.519Z,42.68
2018-03-20T23:30:21.731Z,42.76
2018-03-20T23:32:47.899Z,42.78
2018-03-20T23:35:14.087Z,42.82
2018-03-20T23:37:40.259Z,42.88
2018-03-20T23:40:06.464Z,42.92
2018-03-20T23:42:32.630Z,42.94
2018-03-20T23:44:58.804Z,43.01
2018-03-20T23:47:25.000Z,43.03
2018-03-20T23:49:51.239Z,43.00
2018-03-20T23:52:17.423Z,43.07
2018-03-20T23:54:43.642Z,43.09
2018-03-20T23:57:09.849Z,43.14
2018-03-20T23:59:36.027Z,43.12
